Time;durP1;ratioP1;P1;durP2;ratioP2;P2;SDS_P1;SDS_P2;PMS_P1;PMS_P2;Temp;Humidity;BMP_temperature;BMP_pressure;BME280_temperature;BME280_humidity;BME280_pressure;Samples;Min_cycle;Max_cycle;Signal;HPM_P1;HPM_P2
2021/06/08 00:01:51;;;;;;;13.48;10.35;;;15.70;99.90;;;;;;12383781;28;20053;-36
2021/06/08 00:07:53;;;;;;;11.73;9.35;;;15.70;99.90;;;;;;12371463;28;20054;-36
2021/06/08 00:13:55;;;;;;;14.88;9.48;;;15.60;99.90;;;;;;12377230;28;20054;-35
2021/06/08 00:19:57;;;;;;;13.68;9.55;;;15.50;99.90;;;;;;12382358;28;20046;-36
2021/06/08 00:25:59;;;;;;;11.25;10.02;;;15.60;99.90;;;;;;12373637;28;20050;-35
2021/06/08 00:32:01;;;;;;;12.27;9.48;;;15.70;99.90;;;;;;12385678;28;20120;-36
2021/06/08 00:38:03;;;;;;;12.40;9.90;;;15.70;99.90;;;;;;12377222;28;20096;-37
2021/06/08 00:44:07;;;;;;;16.55;11.05;;;15.70;99.90;;;;;;12382899;28;20100;-36
2021/06/08 00:50:09;;;;;;;16.67;11.20;;;15.60;99.90;;;;;;12379497;28;20095;-36
2021/06/08 00:56:11;;;;;;;16.15;10.57;;;15.60;99.90;;;;;;12376413;28;20062;-37
2021/06/08 01:02:15;;;;;;;16.73;11.60;;;15.40;99.90;;;;;;12375446;28;20042;-37
2021/06/08 01:08:17;;;;;;;17.13;11.93;;;15.40;99.90;;;;;;12380451;28;20534;-36
2021/06/08 01:14:19;;;;;;;21.90;11.20;;;15.40;99.90;;;;;;12377314;28;20491;-36
2021/06/08 01:20:21;;;;;;;18.70;11.68;;;15.50;99.90;;;;;;12382134;28;20054;-37
2021/06/08 01:26:25;;;;;;;11.98;10.45;;;15.40;99.90;;;;;;12377197;28;20050;-36
2021/06/08 01:32:29;;;;;;;10.13;8.88;;;15.60;99.90;;;;;;12380146;28;20037;-36
2021/06/08 01:38:31;;;;;;;14.70;10.45;;;15.50;99.90;;;;;;12381805;28;20463;-37
2021/06/08 01:44:33;;;;;;;13.38;9.93;;;15.60;99.90;;;;;;12380217;28;20056;-36
2021/06/08 01:50:36;;;;;;;14.60;10.95;;;15.60;99.90;;;;;;12373939;28;20128;-36
2021/06/08 01:56:42;;;;;;;14.82;10.70;;;15.60;99.90;;;;;;12379629;28;20054;-37
2021/06/08 02:02:53;;;;;;;13.68;10.88;;;15.60;99.90;;;;;;12378122;28;20475;-36
2021/06/08 02:09:20;;;;;;;14.85;11.95;;;15.50;99.90;;;;;;12373855;28;20122;-36
2021/06/08 02:15:27;;;;;;;14.82;10.55;;;15.50;99.90;;;;;;12398299;28;20190;-36
2021/06/08 02:21:35;;;;;;;16.42;12.77;;;15.60;99.90;;;;;;12387519;28;20160;-36
2021/06/08 02:27:38;;;;;;;15.10;12.52;;;15.60;99.90;;;;;;12387135;28;20110;-36
2021/06/08 02:33:41;;;;;;;20.70;12.35;;;15.40;99.90;;;;;;12396713;28;20049;-36
2021/06/08 02:39:44;;;;;;;15.93;13.43;;;15.40;99.90;;;;;;12391197;28;20088;-37
2021/06/08 02:45:46;;;;;;;18.38;12.73;;;15.40;99.90;;;;;;12392086;28;20103;-36
2021/06/08 02:51:49;;;;;;;15.80;12.20;;;15.40;99.90;;;;;;12389388;28;20548;-36
2021/06/08 02:57:54;;;;;;;12.85;10.38;;;15.50;99.90;;;;;;12395354;28;20055;-36
2021/06/08 03:03:58;;;;;;;;;;;15.40;99.90;;;;;;12404696;28;20103;-36
2021/06/08 03:10:16;;;;;;;17.20;11.13;;;15.30;99.90;;;;;;12398276;28;20441;-35
2021/06/08 03:16:22;;;;;;;16.48;12.75;;;15.30;99.90;;;;;;12393950;28;20042;-40
2021/06/08 03:22:27;;;;;;;15.23;12.10;;;15.30;99.90;;;;;;12391703;28;20074;-35
2021/06/08 03:28:31;;;;;;;15.90;12.25;;;15.20;99.90;;;;;;12388020;28;20058;-36
2021/06/08 03:34:36;;;;;;;18.75;13.82;;;15.30;99.90;;;;;;12390696;28;20057;-36
2021/06/08 03:40:38;;;;;;;15.52;12.65;;;15.30;99.90;;;;;;12382084;28;20141;-36
2021/06/08 03:46:41;;;;;;;16.90;13.25;;;15.40;99.90;;;;;;12387193;28;20053;-36
2021/06/08 03:52:49;;;;;;;18.92;14.25;;;15.30;99.90;;;;;;12384050;28;20139;-36
2021/06/08 03:58:55;;;;;;;15.88;13.70;;;15.30;99.90;;;;;;12384784;28;20056;-36
2021/06/08 04:04:57;;;;;;;18.02;14.00;;;15.10;99.90;;;;;;12383584;28;20666;-37
2021/06/08 04:10:59;;;;;;;21.52;14.70;;;15.10;99.90;;;;;;12382795;28;20115;-37
2021/06/08 04:17:02;;;;;;;20.58;13.95;;;15.30;99.90;;;;;;12383922;28;20054;-36
2021/06/08 04:23:04;;;;;;;19.30;15.27;;;15.20;99.90;;;;;;12382703;28;20042;-36
2021/06/08 04:29:07;;;;;;;22.15;14.45;;;15.20;99.90;;;;;;12385270;28;20975;-36
2021/06/08 04:35:10;;;;;;;19.02;15.23;;;15.30;99.90;;;;;;12382547;28;20103;-36
2021/06/08 04:41:12;;;;;;;19.75;17.02;;;15.30;99.90;;;;;;12384797;28;20147;-36
2021/06/08 04:47:17;;;;;;;23.70;17.17;;;15.30;99.90;;;;;;12387838;28;20054;-36
2021/06/08 04:53:19;;;;;;;24.13;17.50;;;15.30;99.90;;;;;;12388012;28;20112;-38
2021/06/08 04:59:33;;;;;;;21.35;17.77;;;15.30;99.90;;;;;;12387388;28;20890;-36
2021/06/08 05:05:39;;;;;;;23.40;19.17;;;15.30;99.90;;;;;;12387803;28;20054;-35
2021/06/08 05:11:52;;;;;;;20.75;17.92;;;15.30;99.90;;;;;;12383595;28;20107;-35
2021/06/08 05:17:59;;;;;;;25.92;20.42;;;15.40;99.90;;;;;;12383496;28;20054;-37
2021/06/08 05:24:03;;;;;;;26.97;18.87;;;15.40;99.90;;;;;;12384410;28;20504;-35
2021/06/08 05:30:08;;;;;;;27.08;20.92;;;15.40;99.90;;;;;;12386306;28;20057;-38
2021/06/08 05:36:10;;;;;;;31.38;23.00;;;15.40;99.90;;;;;;12388691;28;20060;-36
2021/06/08 05:42:20;;;;;;;26.85;21.92;;;15.40;99.90;;;;;;12393103;28;20115;-37
2021/06/08 05:48:22;;;;;;;32.13;23.65;;;15.40;99.90;;;;;;12385046;28;20099;-36
2021/06/08 05:54:26;;;;;;;34.40;25.63;;;15.40;99.90;;;;;;12389766;28;20990;-36
2021/06/08 06:00:28;;;;;;;;;;;15.40;99.90;;;;;;12385024;28;20068;-36
2021/06/08 06:06:30;;;;;;;36.35;27.25;;;15.40;99.90;;;;;;12383228;28;20294;-36
2021/06/08 06:12:36;;;;;;;33.50;26.17;;;15.50;99.90;;;;;;12386821;28;20054;-36
2021/06/08 06:18:39;;;;;;;44.28;29.05;;;15.50;99.90;;;;;;12387201;28;20482;-36
2021/06/08 06:24:41;;;;;;;35.17;27.17;;;15.50;99.90;;;;;;12384760;28;20111;-36
2021/06/08 06:30:44;;;;;;;41.10;30.58;;;15.50;99.90;;;;;;12381569;28;20056;-39
2021/06/08 06:36:48;;;;;;;36.35;27.42;;;15.60;99.90;;;;;;12390819;28;20054;-36
2021/06/08 06:42:52;;;;;;;44.53;33.23;;;15.60;99.90;;;;;;12383134;28;20045;-35
2021/06/08 06:48:55;;;;;;;41.08;28.77;;;15.60;99.90;;;;;;12384414;28;20120;-37
2021/06/08 06:54:57;;;;;;;48.55;33.95;;;15.60;99.90;;;;;;12381874;28;20054;-36
2021/06/08 07:01:00;;;;;;;47.72;33.58;;;15.60;99.90;;;;;;12391215;28;20456;-35
2021/06/08 07:07:03;;;;;;;42.72;31.48;;;15.60;99.90;;;;;;12394499;28;20055;-40
2021/06/08 07:13:06;;;;;;;40.65;31.10;;;15.60;99.90;;;;;;12395044;28;20050;-36
2021/06/08 07:19:13;;;;;;;52.77;36.90;;;15.70;99.90;;;;;;12394723;28;20120;-36
2021/06/08 07:25:17;;;;;;;53.65;35.55;;;15.70;99.90;;;;;;12393857;28;20100;-36
2021/06/08 07:31:22;;;;;;;;;;;15.50;99.90;;;;;;12390932;28;20131;-38
2021/06/08 07:37:26;;;;;;;48.45;32.22;;;15.50;99.90;;;;;;12401766;28;19929;-36
2021/06/08 07:43:36;;;;;;;50.95;32.97;;;15.60;99.90;;;;;;12394616;28;20056;-35
2021/06/08 07:49:38;;;;;;;49.15;33.90;;;15.70;99.90;;;;;;12388913;28;20560;-38
2021/06/08 07:55:42;;;;;;;55.22;36.33;;;15.70;99.90;;;;;;12387640;28;20046;-37
2021/06/08 08:02:00;;;;;;;44.85;31.88;;;15.80;99.90;;;;;;12355580;28;20050;-35
2021/06/08 08:08:03;;;;;;;51.55;35.22;;;15.90;99.90;;;;;;12381603;28;20065;-37
2021/06/08 08:14:05;;;;;;;49.00;34.35;;;15.90;99.90;;;;;;12387184;28;20042;-35
2021/06/08 08:20:09;;;;;;;50.28;35.72;;;15.90;99.90;;;;;;12383243;28;20731;-35
2021/06/08 08:26:12;;;;;;;51.40;35.10;;;16.00;99.90;;;;;;12385093;28;20483;-38
2021/06/08 08:32:14;;;;;;;49.58;34.60;;;16.00;99.90;;;;;;12384373;28;20223;-35
2021/06/08 08:38:16;;;;;;;48.08;33.58;;;16.10;99.90;;;;;;12385680;28;20049;-36
2021/06/08 08:44:18;;;;;;;59.60;37.92;;;16.10;99.90;;;;;;12384784;28;20087;-37
2021/06/08 08:50:21;;;;;;;45.70;32.33;;;16.20;99.90;;;;;;12384797;28;20067;-36
2021/06/08 08:56:35;;;;;;;55.30;35.70;;;16.30;99.90;;;;;;12386311;28;20108;-37
2021/06/08 09:02:37;;;;;;;54.85;35.95;;;16.20;99.90;;;;;;12385114;28;20429;-37
2021/06/08 09:08:40;;;;;;;53.42;34.92;;;16.10;99.90;;;;;;12384412;28;20061;-36
2021/06/08 09:14:42;;;;;;;55.30;36.47;;;16.10;99.90;;;;;;12382113;28;20082;-37
2021/06/08 09:20:44;;;;;;;45.65;30.67;;;16.10;99.90;;;;;;12380833;28;20045;-36
2021/06/08 09:26:54;;;;;;;45.50;29.70;;;16.20;99.90;;;;;;12374547;28;20135;-36
2021/06/08 09:32:55;;;;;;;53.80;34.40;;;16.40;99.90;;;;;;12382826;28;20046;-37
2021/06/08 09:39:05;;;;;;;45.20;30.02;;;16.50;99.90;;;;;;12381901;28;20053;-37
2021/06/08 09:45:15;;;;;;;42.72;29.33;;;16.80;99.90;;;;;;12384840;28;20057;-35
2021/06/08 09:51:17;;;;;;;44.67;30.45;;;16.50;99.90;;;;;;12381086;28;20054;-37
2021/06/08 09:57:26;;;;;;;43.42;30.45;;;16.80;99.90;;;;;;12383700;28;20521;-36
2021/06/08 10:03:46;;;;;;;41.58;27.45;;;17.00;99.90;;;;;;12380916;28;20541;-36
2021/06/08 10:10:06;;;;;;;39.42;28.65;;;17.20;99.90;;;;;;12383179;28;20089;-37
2021/06/08 10:16:09;;;;;;;40.33;28.35;;;17.30;99.90;;;;;;12379627;28;20379;-36
2021/06/08 10:22:29;;;;;;;40.95;30.70;;;17.30;99.90;;;;;;12377576;28;20042;-39
2021/06/08 10:28:31;;;;;;;38.90;28.55;;;17.60;99.90;;;;;;12383000;28;20050;-37
2021/06/08 10:34:33;;;;;;;32.85;22.23;;;17.80;99.90;;;;;;12392809;28;20061;-36
2021/06/08 10:40:38;;;;;;;32.90;25.15;;;17.80;99.90;;;;;;12392982;28;20058;-38
2021/06/08 10:46:45;;;;;;;42.63;29.27;;;17.80;99.90;;;;;;12422367;28;20054;-36
2021/06/08 10:52:47;;;;;;;48.25;31.15;;;17.70;99.90;;;;;;12387918;28;20767;-38
2021/06/08 10:58:53;;;;;;;43.38;30.30;;;17.80;99.90;;;;;;12391049;28;20054;-37
2021/06/08 11:04:56;;;;;;;43.30;29.95;;;17.90;99.90;;;;;;12387053;28;20054;-37
2021/06/08 11:10:59;;;;;;;42.23;29.73;;;17.80;99.90;;;;;;12391083;28;20058;-39
2021/06/08 11:17:39;;;;;;;42.40;32.10;;;17.90;99.90;;;;;;12390451;28;20080;-37
2021/06/08 11:23:44;;;;;;;37.85;27.83;;;18.00;99.90;;;;;;12382720;28;20046;-38
2021/06/08 11:29:59;;;;;;;41.58;28.25;;;18.40;99.90;;;;;;12389267;28;20051;-36
2021/06/08 11:36:22;;;;;;;31.08;23.63;;;18.40;99.90;;;;;;12444272;28;20076;-35
2021/06/08 11:42:34;;;;;;;38.92;28.02;;;18.60;99.90;;;;;;12418166;28;20294;-36
2021/06/08 11:48:37;;;;;;;44.22;31.60;;;18.60;99.90;;;;;;12386691;28;20049;-36
2021/06/08 11:54:42;;;;;;;43.58;33.72;;;18.20;99.90;;;;;;12385712;28;20050;-37
2021/06/08 12:00:54;;;;;;;40.45;30.25;;;18.10;99.90;;;;;;12385993;28;20054;-36
2021/06/08 12:07:00;;;;;;;45.78;33.13;;;18.10;99.90;;;;;;12388708;28;20145;-38
2021/06/08 12:13:03;;;;;;;46.70;33.88;;;18.30;99.90;;;;;;12382118;28;20058;-36
2021/06/08 12:19:08;;;;;;;45.22;34.03;;;18.30;99.90;;;;;;12389145;28;20107;-37
2021/06/08 12:25:11;;;;;;;45.55;34.03;;;18.40;99.90;;;;;;12391622;28;20053;-42
2021/06/08 12:31:20;;;;;;;45.95;34.30;;;19.00;99.90;;;;;;12390658;28;20053;-36
2021/06/08 12:37:27;;;;;;;37.65;29.63;;;19.90;99.90;;;;;;12385213;28;20080;-36
2021/06/08 12:43:41;;;;;;;42.20;29.63;;;20.00;99.90;;;;;;12385525;28;20402;-35
2021/06/08 12:49:43;;;;;;;39.53;29.60;;;21.00;99.90;;;;;;12384047;28;20054;-40
2021/06/08 12:55:50;;;;;;;25.07;21.73;;;21.00;99.90;;;;;;12385980;28;20054;-41
2021/06/08 13:02:11;;;;;;;21.20;18.60;;;20.70;99.90;;;;;;12389265;28;20137;-36
2021/06/08 13:08:18;;;;;;;29.50;23.63;;;20.90;99.90;;;;;;12421435;28;20137;-38
2021/06/08 13:14:23;;;;;;;35.10;26.42;;;20.40;99.90;;;;;;12382026;28;20469;-36
2021/06/08 13:20:27;;;;;;;25.08;21.15;;;20.00;99.90;;;;;;12381737;28;20050;-37
2021/06/08 13:26:29;;;;;;;27.15;21.85;;;20.30;99.90;;;;;;12384415;28;20464;-36
2021/06/08 13:32:33;;;;;;;34.17;26.02;;;20.10;99.90;;;;;;12382997;28;20042;-36
2021/06/08 13:38:36;;;;;;;34.47;26.92;;;19.80;99.90;;;;;;12383064;28;20046;-36
2021/06/08 13:44:38;;;;;;;36.88;27.38;;;19.70;99.90;;;;;;12384039;28;20130;-36
2021/06/08 13:50:39;;;;;;;31.90;25.63;;;19.60;99.90;;;;;;12385348;28;20045;-36
2021/06/08 13:57:02;;;;;;;29.83;25.00;;;19.50;99.90;;;;;;12382330;28;20107;-38
2021/06/08 14:03:04;;;;;;;31.13;24.98;;;19.40;99.90;;;;;;12381852;28;20115;-36
2021/06/08 14:09:10;;;;;;;27.75;21.48;;;19.40;99.90;;;;;;12383011;28;20193;-37
2021/06/08 14:15:14;;;;;;;29.52;23.38;;;19.40;99.90;;;;;;12382512;28;20134;-36
2021/06/08 14:21:16;;;;;;;23.65;19.65;;;19.40;99.90;;;;;;12383141;28;20456;-36
2021/06/08 14:27:19;;;;;;;25.45;21.30;;;19.40;99.90;;;;;;12381395;28;20062;-36
2021/06/08 14:33:22;;;;;;;26.30;22.03;;;19.50;99.90;;;;;;12379427;28;20054;-39
2021/06/08 14:39:24;;;;;;;24.65;20.95;;;19.50;99.90;;;;;;12379615;28;20050;-37
2021/06/08 14:45:26;;;;;;;25.92;20.00;;;19.50;99.90;;;;;;12380749;28;20123;-36
2021/06/08 14:51:28;;;;;;;18.13;14.43;;;19.50;99.90;;;;;;12381866;28;20047;-37
2021/06/08 14:57:31;;;;;;;25.27;20.55;;;19.70;99.90;;;;;;12376910;28;20075;-38
2021/06/08 15:03:33;;;;;;;15.05;13.38;;;19.80;99.90;;;;;;12380524;28;20060;-39
2021/06/08 15:09:34;;;;;;;23.80;19.40;;;20.30;99.90;;;;;;12384427;28;20144;-36
2021/06/08 15:15:38;;;;;;;23.45;16.52;;;20.30;99.90;;;;;;12378934;28;20064;-37
2021/06/08 15:21:41;;;;;;;;;;;20.90;99.90;;;;;;12387648;28;20169;-37
2021/06/08 15:27:46;;;;;;;15.52;12.75;;;21.30;99.90;;;;;;12391727;28;20210;-37
2021/06/08 15:33:48;;;;;;;18.88;15.70;;;21.60;99.90;;;;;;12385772;28;21034;-37
2021/06/08 15:39:52;;;;;;;17.13;10.85;;;21.50;99.90;;;;;;12394393;28;20142;-37
2021/06/08 15:45:57;;;;;;;21.25;15.98;;;22.00;99.90;;;;;;12389826;28;20532;-36
2021/06/08 15:51:59;;;;;;;21.38;15.40;;;22.50;99.90;;;;;;12394299;28;20054;-42
2021/06/08 15:58:02;;;;;;;11.85;8.88;;;22.30;99.90;;;;;;12390106;28;20049;-37
2021/06/08 16:04:05;;;;;;;18.48;15.88;;;22.00;99.90;;;;;;12386030;28;20103;-38
2021/06/08 16:10:10;;;;;;;21.15;16.77;;;21.80;99.90;;;;;;12389982;28;20515;-38
2021/06/08 16:16:12;;;;;;;19.58;15.63;;;21.30;99.90;;;;;;12387714;28;20458;-36
2021/06/08 16:22:14;;;;;;;22.75;17.90;;;21.00;99.90;;;;;;12386125;28;20046;-37
2021/06/08 16:28:16;;;;;;;13.20;11.68;;;21.20;99.90;;;;;;12389109;28;20146;-37
2021/06/08 16:34:18;;;;;;;15.80;14.10;;;21.70;99.90;;;;;;12384278;28;20093;-37
2021/06/08 16:40:20;;;;;;;13.32;11.95;;;21.80;99.90;;;;;;12389740;28;20115;-36
2021/06/08 16:46:23;;;;;;;15.85;13.88;;;21.50;99.90;;;;;;12387385;28;20046;-38
2021/06/08 16:58:47;;;;;;;21.98;18.20;;;21.10;99.90;;;;;;12387327;28;20182;-40
2021/06/08 17:04:49;;;;;;;24.97;19.40;;;21.20;99.90;;;;;;12383675;28;20089;-37
2021/06/08 17:10:51;;;;;;;18.08;15.35;;;21.80;99.90;;;;;;12383887;28;20886;-37
2021/06/08 17:16:53;;;;;;;19.88;16.63;;;22.50;99.90;;;;;;12384559;28;20076;-37
2021/06/08 17:22:55;;;;;;;20.00;17.00;;;22.60;99.90;;;;;;12382156;28;20159;-37
2021/06/08 17:28:57;;;;;;;21.20;19.00;;;22.20;99.90;;;;;;12386492;28;20092;-39
2021/06/08 17:35:01;;;;;;;17.25;15.48;;;21.80;99.90;;;;;;12385252;28;20050;-36
2021/06/08 17:41:03;;;;;;;14.90;13.23;;;22.00;99.90;;;;;;12384998;28;20056;-37
2021/06/08 17:47:05;;;;;;;17.40;15.52;;;22.60;99.90;;;;;;12383360;28;20493;-37
2021/06/08 17:53:07;;;;;;;19.58;15.77;;;22.80;99.90;;;;;;12383244;28;20146;-36
2021/06/08 17:59:12;;;;;;;16.58;14.77;;;22.90;99.90;;;;;;12380005;28;20056;-36
2021/06/08 18:05:14;;;;;;;20.00;17.98;;;22.90;99.90;;;;;;12380861;28;20107;-39
2021/06/08 18:11:17;;;;;;;15.80;13.27;;;22.80;99.90;;;;;;12380097;28;20057;-36
2021/06/08 18:17:19;;;;;;;23.30;17.38;;;22.60;99.90;;;;;;12381400;28;20797;-37
2021/06/08 18:23:23;;;;;;;17.17;14.60;;;22.30;99.90;;;;;;12382723;28;20062;-39
2021/06/08 18:29:25;;;;;;;22.75;17.08;;;21.90;99.90;;;;;;12380201;28;20085;-37
2021/06/08 18:35:27;;;;;;;14.75;13.07;;;21.60;99.90;;;;;;12385599;28;20112;-36
2021/06/08 18:41:29;;;;;;;10.65;9.55;;;21.30;99.90;;;;;;12382810;28;20990;-37
2021/06/08 18:47:31;;;;;;;15.90;14.27;;;21.00;99.90;;;;;;12389324;28;20049;-38
2021/06/08 18:53:34;;;;;;;18.35;14.80;;;20.80;99.90;;;;;;12389048;28;20061;-37
2021/06/08 18:59:38;;;;;;;17.63;15.73;;;20.40;99.90;;;;;;12390678;28;20557;-37
2021/06/08 19:05:41;;;;;;;18.83;16.88;;;20.00;99.90;;;;;;12390363;28;20057;-37
2021/06/08 19:11:43;;;;;;;17.42;15.10;;;19.70;99.90;;;;;;12389583;28;20057;-40
2021/06/08 19:17:48;;;;;;;16.02;13.65;;;19.70;99.90;;;;;;12389530;28;20101;-37
2021/06/08 19:23:51;;;;;;;18.10;14.63;;;19.70;99.90;;;;;;12389726;28;20042;-36
2021/06/08 19:29:53;;;;;;;18.52;16.63;;;19.50;99.90;;;;;;12388573;28;20407;-39
2021/06/08 19:35:55;;;;;;;19.80;16.77;;;19.30;99.90;;;;;;12389198;28;20108;-37
2021/06/08 19:41:57;;;;;;;18.38;16.48;;;18.90;99.90;;;;;;12391242;28;20690;-37
2021/06/08 19:47:59;;;;;;;18.55;16.52;;;18.70;99.90;;;;;;12391909;28;20089;-37
2021/06/08 19:54:03;;;;;;;19.95;17.25;;;18.40;99.90;;;;;;12390482;28;20156;-36
2021/06/08 20:00:08;;;;;;;18.88;16.95;;;18.50;99.90;;;;;;12390828;28;20149;-38
2021/06/08 20:06:10;;;;;;;16.55;14.93;;;18.60;99.90;;;;;;12389833;28;20486;-37
2021/06/08 20:12:12;;;;;;;19.70;16.60;;;18.50;99.90;;;;;;12394449;28;20136;-36
2021/06/08 20:18:15;;;;;;;18.50;16.52;;;18.50;99.90;;;;;;12384990;28;20412;-43
2021/06/08 20:24:17;;;;;;;17.98;16.05;;;18.10;99.90;;;;;;12382727;28;20050;-36
2021/06/08 20:30:20;;;;;;;18.88;16.77;;;18.00;99.90;;;;;;12384067;28;20108;-36
2021/06/08 20:36:23;;;;;;;21.17;17.38;;;18.10;99.90;;;;;;12383492;28;20054;-39
2021/06/08 20:42:25;;;;;;;20.70;17.87;;;18.10;99.90;;;;;;12389631;28;20134;-38
2021/06/08 20:48:27;;;;;;;18.33;16.40;;;18.20;99.90;;;;;;12388253;28;20082;-36
2021/06/08 20:54:29;;;;;;;17.45;15.65;;;18.20;99.90;;;;;;12383228;28;20069;-37
2021/06/08 21:00:31;;;;;;;18.05;16.27;;;18.20;99.90;;;;;;12383456;28;20049;-36
2021/06/08 21:06:33;;;;;;;18.85;16.60;;;18.20;99.90;;;;;;12385092;28;20463;-38
2021/06/08 21:12:35;;;;;;;20.77;16.00;;;18.00;99.90;;;;;;12388043;28;20502;-38
2021/06/08 21:18:37;;;;;;;21.77;17.70;;;18.00;99.90;;;;;;12382628;28;20325;-37
2021/06/08 21:24:39;;;;;;;18.10;15.63;;;18.00;99.90;;;;;;12383086;28;20095;-37
2021/06/08 21:30:41;;;;;;;20.58;15.43;;;18.00;99.90;;;;;;12382027;28;20137;-37
2021/06/08 21:36:43;;;;;;;18.50;16.60;;;18.00;99.90;;;;;;12381813;28;20172;-37
2021/06/08 21:42:45;;;;;;;19.70;16.88;;;18.00;99.90;;;;;;12379018;28;20068;-39
2021/06/08 21:48:47;;;;;;;21.52;18.40;;;18.00;99.90;;;;;;12385141;28;20109;-38
2021/06/08 21:54:49;;;;;;;23.65;18.73;;;18.00;99.90;;;;;;12387444;28;20145;-36
2021/06/08 22:00:51;;;;;;;21.00;18.80;;;18.00;99.90;;;;;;12382663;28;20046;-39
2021/06/08 22:06:53;;;;;;;24.33;20.77;;;17.90;99.90;;;;;;12380056;28;20137;-38
2021/06/08 22:12:55;;;;;;;31.25;22.15;;;17.90;99.90;;;;;;12380993;28;20058;-37
2021/06/08 22:18:57;;;;;;;29.00;23.60;;;17.90;99.90;;;;;;12381808;28;20474;-36
2021/06/08 22:24:59;;;;;;;27.73;21.83;;;17.90;99.90;;;;;;12384163;28;20148;-36
2021/06/08 22:31:02;;;;;;;31.88;19.67;;;18.00;99.90;;;;;;12387462;28;20074;-37
2021/06/08 22:37:10;;;;;;;26.92;19.10;;;18.00;99.90;;;;;;12391642;28;20141;-36
2021/06/08 22:43:12;;;;;;;26.35;20.35;;;18.00;99.90;;;;;;12390424;28;20045;-36
2021/06/08 22:49:14;;;;;;;21.08;17.83;;;18.00;99.90;;;;;;12392093;28;20081;-39
2021/06/08 22:55:18;;;;;;;19.50;16.15;;;18.10;99.90;;;;;;12388231;28;20168;-36
2021/06/08 23:01:21;;;;;;;19.10;16.92;;;18.10;99.90;;;;;;12391001;28;20107;-38
2021/06/08 23:07:23;;;;;;;19.50;15.57;;;18.10;99.90;;;;;;12391195;28;20042;-36
2021/06/08 23:13:25;;;;;;;19.05;15.18;;;18.10;99.90;;;;;;12389967;28;20486;-37
2021/06/08 23:19:27;;;;;;;19.17;16.63;;;18.10;99.90;;;;;;12389490;28;20100;-37
2021/06/08 23:25:29;;;;;;;19.55;15.55;;;18.10;99.90;;;;;;12386758;28;20075;-38
2021/06/08 23:31:33;;;;;;;18.00;15.38;;;18.10;99.90;;;;;;12387293;28;20130;-36
2021/06/08 23:37:35;;;;;;;24.65;16.13;;;18.00;99.90;;;;;;12388664;28;20065;-36
2021/06/08 23:43:37;;;;;;;22.75;14.32;;;18.00;99.90;;;;;;12391604;28;20042;-38
2021/06/08 23:49:39;;;;;;;28.00;13.32;;;17.90;99.90;;;;;;12390676;28;20081;-35
2021/06/08 23:55:42;;;;;;;21.15;13.80;;;17.90;99.90;;;;;;12387242;28;20180;-37
